sensor_id;sensor_type;location;lat;lon;timestamp;P1;durP1;ratioP1;P2;durP2;ratioP2
16139;SDS011;8175;49.326;12.690;2023-02-24T00:01:14;23.03;;;17.20;;
16139;SDS011;8175;49.326;12.690;2023-02-24T00:03:58;22.57;;;15.47;;
16139;SDS011;8175;49.326;12.690;2023-02-24T00:06:25;27.27;;;18.63;;
16139;SDS011;8175;49.326;12.690;2023-02-24T00:09:00;29.30;;;18.43;;
16139;SDS011;8175;49.326;12.690;2023-02-24T00:14:27;22.50;;;16.90;;
16139;SDS011;8175;49.326;12.690;2023-02-24T00:16:55;23.57;;;16.30;;
16139;SDS011;8175;49.326;12.690;2023-02-24T00:19:23;22.57;;;16.87;;
16139;SDS011;8175;49.326;12.690;2023-02-24T00:21:50;30.37;;;18.87;;
16139;SDS011;8175;49.326;12.690;2023-02-24T00:24:18;27.13;;;17.80;;
16139;SDS011;8175;49.326;12.690;2023-02-24T00:26:44;28.03;;;18.37;;
16139;SDS011;8175;49.326;12.690;2023-02-24T00:29:12;27.83;;;18.07;;
16139;SDS011;8175;49.326;12.690;2023-02-24T00:31:38;29.77;;;18.33;;
16139;SDS011;8175;49.326;12.690;2023-02-24T00:34:06;27.43;;;18.43;;
16139;SDS011;8175;49.326;12.690;2023-02-24T00:36:32;30.43;;;21.63;;
16139;SDS011;8175;49.326;12.690;2023-02-24T00:38:59;31.37;;;20.40;;
16139;SDS011;8175;49.326;12.690;2023-02-24T00:41:30;30.67;;;20.53;;
16139;SDS011;8175;49.326;12.690;2023-02-24T00:44:00;30.47;;;21.37;;
16139;SDS011;8175;49.326;12.690;2023-02-24T00:46:43;34.33;;;21.03;;
16139;SDS011;8175;49.326;12.690;2023-02-24T00:49:14;28.37;;;18.77;;
16139;SDS011;8175;49.326;12.690;2023-02-24T00:51:43;31.70;;;21.03;;
16139;SDS011;8175;49.326;12.690;2023-02-24T00:54:10;32.37;;;20.47;;
16139;SDS011;8175;49.326;12.690;2023-02-24T00:56:43;34.57;;;20.70;;
16139;SDS011;8175;49.326;12.690;2023-02-24T00:59:11;36.57;;;22.03;;
16139;SDS011;8175;49.326;12.690;2023-02-24T01:01:38;32.50;;;19.23;;
16139;SDS011;8175;49.326;12.690;2023-02-24T01:04:05;33.63;;;20.77;;
16139;SDS011;8175;49.326;12.690;2023-02-24T01:06:39;30.80;;;19.80;;
16139;SDS011;8175;49.326;12.690;2023-02-24T01:09:09;26.23;;;18.60;;
16139;SDS011;8175;49.326;12.690;2023-02-24T01:11:37;26.23;;;19.10;;
16139;SDS011;8175;49.326;12.690;2023-02-24T01:14:23;25.27;;;17.07;;
16139;SDS011;8175;49.326;12.690;2023-02-24T01:16:51;30.60;;;19.50;;
16139;SDS011;8175;49.326;12.690;2023-02-24T01:19:22;27.30;;;18.33;;
16139;SDS011;8175;49.326;12.690;2023-02-24T01:21:54;31.93;;;19.63;;
16139;SDS011;8175;49.326;12.690;2023-02-24T01:24:22;28.27;;;19.03;;
16139;SDS011;8175;49.326;12.690;2023-02-24T01:26:48;31.73;;;19.07;;
16139;SDS011;8175;49.326;12.690;2023-02-24T01:29:14;25.30;;;19.13;;
16139;SDS011;8175;49.326;12.690;2023-02-24T01:31:40;25.63;;;17.20;;
16139;SDS011;8175;49.326;12.690;2023-02-24T01:34:10;27.77;;;17.70;;
16139;SDS011;8175;49.326;12.690;2023-02-24T01:36:37;27.63;;;18.03;;
16139;SDS011;8175;49.326;12.690;2023-02-24T01:39:05;26.20;;;17.43;;
16139;SDS011;8175;49.326;12.690;2023-02-24T01:41:35;25.03;;;17.10;;
16139;SDS011;8175;49.326;12.690;2023-02-24T01:46:42;26.80;;;17.07;;
16139;SDS011;8175;49.326;12.690;2023-02-24T01:51:39;28.10;;;17.60;;
16139;SDS011;8175;49.326;12.690;2023-02-24T01:54:11;24.13;;;15.27;;
16139;SDS011;8175;49.326;12.690;2023-02-24T01:56:39;28.57;;;17.63;;
16139;SDS011;8175;49.326;12.690;2023-02-24T01:59:05;24.87;;;16.27;;
16139;SDS011;8175;49.326;12.690;2023-02-24T02:01:33;28.40;;;16.33;;
16139;SDS011;8175;49.326;12.690;2023-02-24T02:04:10;30.70;;;18.20;;
16139;SDS011;8175;49.326;12.690;2023-02-24T02:06:43;31.40;;;18.63;;
16139;SDS011;8175;49.326;12.690;2023-02-24T02:09:10;27.83;;;18.70;;
16139;SDS011;8175;49.326;12.690;2023-02-24T02:11:39;33.40;;;19.33;;
16139;SDS011;8175;49.326;12.690;2023-02-24T02:14:05;29.70;;;18.53;;
16139;SDS011;8175;49.326;12.690;2023-02-24T02:24:51;23.37;;;15.83;;
16139;SDS011;8175;49.326;12.690;2023-02-24T02:33:43;30.70;;;18.37;;
16139;SDS011;8175;49.326;12.690;2023-02-24T02:39:11;23.47;;;15.90;;
16139;SDS011;8175;49.326;12.690;2023-02-24T02:41:52;32.63;;;19.67;;
16139;SDS011;8175;49.326;12.690;2023-02-24T02:44:44;28.53;;;17.47;;
16139;SDS011;8175;49.326;12.690;2023-02-24T02:47:19;28.13;;;16.43;;
16139;SDS011;8175;49.326;12.690;2023-02-24T02:49:58;29.83;;;17.37;;
16139;SDS011;8175;49.326;12.690;2023-02-24T02:52:44;30.93;;;18.07;;
16139;SDS011;8175;49.326;12.690;2023-02-24T02:55:25;31.23;;;18.20;;
16139;SDS011;8175;49.326;12.690;2023-02-24T02:58:11;25.40;;;16.63;;
16139;SDS011;8175;49.326;12.690;2023-02-24T03:00:43;25.07;;;16.70;;
16139;SDS011;8175;49.326;12.690;2023-02-24T03:03:22;28.00;;;17.30;;
16139;SDS011;8175;49.326;12.690;2023-02-24T03:05:53;28.40;;;16.73;;
16139;SDS011;8175;49.326;12.690;2023-02-24T03:08:27;27.23;;;17.63;;
16139;SDS011;8175;49.326;12.690;2023-02-24T03:10:57;27.97;;;16.73;;
16139;SDS011;8175;49.326;12.690;2023-02-24T03:13:25;30.73;;;17.70;;
16139;SDS011;8175;49.326;12.690;2023-02-24T03:15:56;26.63;;;16.73;;
16139;SDS011;8175;49.326;12.690;2023-02-24T03:18:27;26.90;;;17.30;;
16139;SDS011;8175;49.326;12.690;2023-02-24T03:21:20;27.07;;;17.13;;
16139;SDS011;8175;49.326;12.690;2023-02-24T03:23:56;29.33;;;17.27;;
16139;SDS011;8175;49.326;12.690;2023-02-24T03:26:31;26.73;;;17.20;;
16139;SDS011;8175;49.326;12.690;2023-02-24T03:32:02;28.07;;;17.50;;
16139;SDS011;8175;49.326;12.690;2023-02-24T03:34:50;33.57;;;19.67;;
16139;SDS011;8175;49.326;12.690;2023-02-24T03:37:21;29.00;;;17.10;;
16139;SDS011;8175;49.326;12.690;2023-02-24T03:39:51;28.37;;;18.73;;
16139;SDS011;8175;49.326;12.690;2023-02-24T03:42:19;29.93;;;18.37;;
16139;SDS011;8175;49.326;12.690;2023-02-24T03:44:46;30.07;;;17.67;;
16139;SDS011;8175;49.326;12.690;2023-02-24T03:47:13;27.77;;;17.53;;
16139;SDS011;8175;49.326;12.690;2023-02-24T03:49:44;26.53;;;17.80;;
16139;SDS011;8175;49.326;12.690;2023-02-24T04:00:47;29.93;;;18.17;;
16139;SDS011;8175;49.326;12.690;2023-02-24T04:03:16;32.80;;;18.93;;
16139;SDS011;8175;49.326;12.690;2023-02-24T04:05:59;33.43;;;20.03;;
16139;SDS011;8175;49.326;12.690;2023-02-24T04:08:30;30.53;;;19.07;;
16139;SDS011;8175;49.326;12.690;2023-02-24T04:11:27;38.77;;;22.90;;
16139;SDS011;8175;49.326;12.690;2023-02-24T04:14:06;36.80;;;22.03;;
16139;SDS011;8175;49.326;12.690;2023-02-24T04:16:36;34.27;;;21.37;;
16139;SDS011;8175;49.326;12.690;2023-02-24T04:19:10;35.97;;;21.93;;
16139;SDS011;8175;49.326;12.690;2023-02-24T04:21:40;34.27;;;20.73;;
16139;SDS011;8175;49.326;12.690;2023-02-24T04:24:08;30.30;;;19.47;;
16139;SDS011;8175;49.326;12.690;2023-02-24T04:26:40;40.00;;;22.60;;
16139;SDS011;8175;49.326;12.690;2023-02-24T04:29:09;36.17;;;20.77;;
16139;SDS011;8175;49.326;12.690;2023-02-24T04:31:42;38.27;;;21.97;;
16139;SDS011;8175;49.326;12.690;2023-02-24T04:34:11;43.80;;;24.10;;
16139;SDS011;8175;49.326;12.690;2023-02-24T04:36:43;40.40;;;22.47;;
16139;SDS011;8175;49.326;12.690;2023-02-24T04:39:19;40.90;;;24.57;;
16139;SDS011;8175;49.326;12.690;2023-02-24T04:41:47;43.37;;;22.93;;
16139;SDS011;8175;49.326;12.690;2023-02-24T04:44:14;40.67;;;23.33;;
16139;SDS011;8175;49.326;12.690;2023-02-24T04:46:41;39.13;;;22.50;;
16139;SDS011;8175;49.326;12.690;2023-02-24T04:49:11;35.50;;;21.13;;
16139;SDS011;8175;49.326;12.690;2023-02-24T04:51:37;37.20;;;22.40;;
16139;SDS011;8175;49.326;12.690;2023-02-24T04:54:10;33.40;;;21.77;;
16139;SDS011;8175;49.326;12.690;2023-02-24T04:56:48;39.53;;;21.00;;
16139;SDS011;8175;49.326;12.690;2023-02-24T04:59:16;35.63;;;20.70;;
16139;SDS011;8175;49.326;12.690;2023-02-24T05:01:42;32.80;;;21.10;;
16139;SDS011;8175;49.326;12.690;2023-02-24T05:04:08;33.20;;;20.80;;
16139;SDS011;8175;49.326;12.690;2023-02-24T05:06:35;36.50;;;22.00;;
16139;SDS011;8175;49.326;12.690;2023-02-24T05:09:05;36.93;;;22.87;;
16139;SDS011;8175;49.326;12.690;2023-02-24T05:11:38;37.60;;;20.77;;
16139;SDS011;8175;49.326;12.690;2023-02-24T05:14:06;35.90;;;21.57;;
16139;SDS011;8175;49.326;12.690;2023-02-24T05:16:33;29.83;;;19.80;;
16139;SDS011;8175;49.326;12.690;2023-02-24T05:18:58;31.27;;;20.53;;
16139;SDS011;8175;49.326;12.690;2023-02-24T05:21:42;37.10;;;21.73;;
16139;SDS011;8175;49.326;12.690;2023-02-24T05:24:08;34.47;;;20.43;;
16139;SDS011;8175;49.326;12.690;2023-02-24T05:26:36;37.03;;;21.40;;
16139;SDS011;8175;49.326;12.690;2023-02-24T05:29:06;35.17;;;23.27;;
16139;SDS011;8175;49.326;12.690;2023-02-24T05:31:32;35.23;;;18.87;;
16139;SDS011;8175;49.326;12.690;2023-02-24T05:34:06;37.60;;;21.37;;
16139;SDS011;8175;49.326;12.690;2023-02-24T05:36:34;34.03;;;19.77;;
16139;SDS011;8175;49.326;12.690;2023-02-24T05:39:09;34.77;;;19.17;;
16139;SDS011;8175;49.326;12.690;2023-02-24T05:41:40;32.27;;;20.20;;
16139;SDS011;8175;49.326;12.690;2023-02-24T05:44:08;33.63;;;19.00;;
16139;SDS011;8175;49.326;12.690;2023-02-24T05:46:37;32.17;;;18.03;;
16139;SDS011;8175;49.326;12.690;2023-02-24T05:49:05;31.33;;;19.20;;
16139;SDS011;8175;49.326;12.690;2023-02-24T05:51:36;35.37;;;19.57;;
16139;SDS011;8175;49.326;12.690;2023-02-24T05:54:07;29.47;;;18.77;;
16139;SDS011;8175;49.326;12.690;2023-02-24T05:56:35;35.13;;;20.33;;
16139;SDS011;8175;49.326;12.690;2023-02-24T05:59:03;34.73;;;21.27;;
16139;SDS011;8175;49.326;12.690;2023-02-24T06:01:32;33.40;;;19.37;;
16139;SDS011;8175;49.326;12.690;2023-02-24T06:04:00;36.77;;;20.40;;
16139;SDS011;8175;49.326;12.690;2023-02-24T06:06:30;31.57;;;19.07;;
16139;SDS011;8175;49.326;12.690;2023-02-24T06:09:03;31.70;;;18.50;;
16139;SDS011;8175;49.326;12.690;2023-02-24T06:11:37;34.50;;;20.20;;
16139;SDS011;8175;49.326;12.690;2023-02-24T06:14:04;29.67;;;17.97;;
16139;SDS011;8175;49.326;12.690;2023-02-24T06:16:34;29.43;;;17.77;;
16139;SDS011;8175;49.326;12.690;2023-02-24T06:19:01;31.00;;;18.33;;
16139;SDS011;8175;49.326;12.690;2023-02-24T06:21:27;28.83;;;17.60;;
16139;SDS011;8175;49.326;12.690;2023-02-24T06:23:56;29.17;;;18.03;;
16139;SDS011;8175;49.326;12.690;2023-02-24T06:26:23;27.03;;;16.87;;
16139;SDS011;8175;49.326;12.690;2023-02-24T06:28:54;24.90;;;15.97;;
16139;SDS011;8175;49.326;12.690;2023-02-24T06:31:20;23.93;;;14.47;;
16139;SDS011;8175;49.326;12.690;2023-02-24T06:33:46;21.53;;;14.63;;
16139;SDS011;8175;49.326;12.690;2023-02-24T06:36:12;23.30;;;14.53;;
16139;SDS011;8175;49.326;12.690;2023-02-24T06:38:39;24.33;;;15.23;;
16139;SDS011;8175;49.326;12.690;2023-02-24T06:41:05;21.30;;;14.17;;
16139;SDS011;8175;49.326;12.690;2023-02-24T06:43:41;24.47;;;14.70;;
16139;SDS011;8175;49.326;12.690;2023-02-24T06:46:09;21.90;;;14.03;;
16139;SDS011;8175;49.326;12.690;2023-02-24T06:48:36;22.57;;;14.67;;
16139;SDS011;8175;49.326;12.690;2023-02-24T06:51:03;20.00;;;13.53;;
16139;SDS011;8175;49.326;12.690;2023-02-24T06:53:31;20.80;;;12.70;;
16139;SDS011;8175;49.326;12.690;2023-02-24T06:56:02;23.30;;;14.10;;
16139;SDS011;8175;49.326;12.690;2023-02-24T06:58:38;19.57;;;12.97;;
16139;SDS011;8175;49.326;12.690;2023-02-24T07:01:14;22.27;;;11.60;;
16139;SDS011;8175;49.326;12.690;2023-02-24T07:03:41;18.00;;;11.70;;
16139;SDS011;8175;49.326;12.690;2023-02-24T07:06:26;20.60;;;11.67;;
16139;SDS011;8175;49.326;12.690;2023-02-24T07:08:56;17.50;;;10.50;;
16139;SDS011;8175;49.326;12.690;2023-02-24T07:11:23;13.63;;;9.83;;
16139;SDS011;8175;49.326;12.690;2023-02-24T07:13:49;16.20;;;10.20;;
16139;SDS011;8175;49.326;12.690;2023-02-24T07:16:19;18.80;;;11.57;;
16139;SDS011;8175;49.326;12.690;2023-02-24T07:18:51;16.30;;;11.17;;
16139;SDS011;8175;49.326;12.690;2023-02-24T07:21:18;17.97;;;12.93;;
16139;SDS011;8175;49.326;12.690;2023-02-24T07:23:47;20.57;;;11.63;;
16139;SDS011;8175;49.326;12.690;2023-02-24T07:26:17;24.67;;;13.20;;
16139;SDS011;8175;49.326;12.690;2023-02-24T07:28:45;18.10;;;12.27;;
16139;SDS011;8175;49.326;12.690;2023-02-24T07:31:12;17.77;;;10.90;;
16139;SDS011;8175;49.326;12.690;2023-02-24T07:33:41;17.67;;;11.13;;
16139;SDS011;8175;49.326;12.690;2023-02-24T07:36:11;19.80;;;13.23;;
16139;SDS011;8175;49.326;12.690;2023-02-24T07:38:42;27.17;;;16.10;;
16139;SDS011;8175;49.326;12.690;2023-02-24T07:41:10;124.90;;;82.70;;
16139;SDS011;8175;49.326;12.690;2023-02-24T07:43:39;508.77;;;314.07;;
16139;SDS011;8175;49.326;12.690;2023-02-24T07:46:09;331.23;;;185.07;;
16139;SDS011;8175;49.326;12.690;2023-02-24T07:48:37;82.87;;;45.13;;
16139;SDS011;8175;49.326;12.690;2023-02-24T07:51:08;83.13;;;43.20;;
16139;SDS011;8175;49.326;12.690;2023-02-24T07:53:36;24.87;;;14.63;;
16139;SDS011;8175;49.326;12.690;2023-02-24T07:56:14;67.57;;;37.80;;
16139;SDS011;8175;49.326;12.690;2023-02-24T07:58:43;48.10;;;31.57;;
16139;SDS011;8175;49.326;12.690;2023-02-24T08:01:12;24.87;;;15.67;;
16139;SDS011;8175;49.326;12.690;2023-02-24T08:03:47;28.00;;;20.07;;
16139;SDS011;8175;49.326;12.690;2023-02-24T08:06:15;58.83;;;42.20;;
16139;SDS011;8175;49.326;12.690;2023-02-24T08:08:51;24.97;;;17.30;;
16139;SDS011;8175;49.326;12.690;2023-02-24T08:11:29;22.37;;;15.20;;
16139;SDS011;8175;49.326;12.690;2023-02-24T08:14:06;28.27;;;16.83;;
16139;SDS011;8175;49.326;12.690;2023-02-24T08:16:47;33.57;;;24.23;;
16139;SDS011;8175;49.326;12.690;2023-02-24T08:19:15;25.90;;;16.33;;
16139;SDS011;8175;49.326;12.690;2023-02-24T08:21:48;23.37;;;15.60;;
16139;SDS011;8175;49.326;12.690;2023-02-24T08:24:17;63.53;;;40.80;;
16139;SDS011;8175;49.326;12.690;2023-02-24T08:26:47;34.73;;;22.00;;
16139;SDS011;8175;49.326;12.690;2023-02-24T08:29:31;26.30;;;16.67;;
16139;SDS011;8175;49.326;12.690;2023-02-24T08:32:21;24.53;;;15.90;;
16139;SDS011;8175;49.326;12.690;2023-02-24T08:34:48;24.20;;;16.17;;
16139;SDS011;8175;49.326;12.690;2023-02-24T08:37:14;31.67;;;18.10;;
16139;SDS011;8175;49.326;12.690;2023-02-24T08:39:41;24.77;;;15.93;;
16139;SDS011;8175;49.326;12.690;2023-02-24T08:42:09;22.67;;;14.67;;
16139;SDS011;8175;49.326;12.690;2023-02-24T08:44:38;22.00;;;14.33;;
16139;SDS011;8175;49.326;12.690;2023-02-24T08:47:08;25.90;;;16.13;;
16139;SDS011;8175;49.326;12.690;2023-02-24T08:49:33;23.80;;;15.33;;
16139;SDS011;8175;49.326;12.690;2023-02-24T08:51:59;29.00;;;18.53;;
16139;SDS011;8175;49.326;12.690;2023-02-24T08:54:31;22.13;;;14.83;;
16139;SDS011;8175;49.326;12.690;2023-02-24T08:56:58;22.90;;;14.53;;
16139;SDS011;8175;49.326;12.690;2023-02-24T08:59:32;23.67;;;15.87;;
16139;SDS011;8175;49.326;12.690;2023-02-24T09:02:10;23.73;;;15.87;;
16139;SDS011;8175;49.326;12.690;2023-02-24T09:05:04;23.53;;;15.53;;
16139;SDS011;8175;49.326;12.690;2023-02-24T09:07:37;24.27;;;16.60;;
16139;SDS011;8175;49.326;12.690;2023-02-24T09:10:10;23.10;;;15.60;;
16139;SDS011;8175;49.326;12.690;2023-02-24T09:12:43;23.90;;;15.60;;
16139;SDS011;8175;49.326;12.690;2023-02-24T09:15:10;22.40;;;14.93;;
16139;SDS011;8175;49.326;12.690;2023-02-24T09:17:40;18.50;;;13.13;;
16139;SDS011;8175;49.326;12.690;2023-02-24T09:20:20;21.53;;;15.47;;
16139;SDS011;8175;49.326;12.690;2023-02-24T09:23:07;20.87;;;14.27;;
16139;SDS011;8175;49.326;12.690;2023-02-24T09:25:43;21.03;;;13.97;;
16139;SDS011;8175;49.326;12.690;2023-02-24T09:28:20;48.30;;;33.63;;
16139;SDS011;8175;49.326;12.690;2023-02-24T09:30:58;20.23;;;14.40;;
16139;SDS011;8175;49.326;12.690;2023-02-24T09:33:37;19.23;;;13.80;;
16139;SDS011;8175;49.326;12.690;2023-02-24T09:36:04;35.73;;;22.90;;
16139;SDS011;8175;49.326;12.690;2023-02-24T09:38:37;17.87;;;12.67;;
16139;SDS011;8175;49.326;12.690;2023-02-24T09:41:38;42.20;;;26.37;;
16139;SDS011;8175;49.326;12.690;2023-02-24T09:44:33;30.57;;;18.63;;
16139;SDS011;8175;49.326;12.690;2023-02-24T09:49:49;16.73;;;11.90;;
16139;SDS011;8175;49.326;12.690;2023-02-24T09:52:20;18.33;;;12.23;;
16139;SDS011;8175;49.326;12.690;2023-02-24T10:01:29;29.40;;;20.80;;
16139;SDS011;8175;49.326;12.690;2023-02-24T10:06:39;19.03;;;14.40;;
16139;SDS011;8175;49.326;12.690;2023-02-24T10:09:27;23.57;;;16.00;;
16139;SDS011;8175;49.326;12.690;2023-02-24T10:12:18;47.57;;;29.97;;
16139;SDS011;8175;49.326;12.690;2023-02-24T10:17:39;33.63;;;20.37;;
16139;SDS011;8175;49.326;12.690;2023-02-24T10:22:54;62.13;;;37.60;;
16139;SDS011;8175;49.326;12.690;2023-02-24T10:25:32;86.10;;;44.93;;
16139;SDS011;8175;49.326;12.690;2023-02-24T10:28:21;49.30;;;29.23;;
16139;SDS011;8175;49.326;12.690;2023-02-24T10:33:38;23.67;;;15.77;;
16139;SDS011;8175;49.326;12.690;2023-02-24T10:36:13;111.57;;;59.27;;
16139;SDS011;8175;49.326;12.690;2023-02-24T10:38:43;15.33;;;10.63;;
16139;SDS011;8175;49.326;12.690;2023-02-24T10:41:10;29.10;;;22.80;;
16139;SDS011;8175;49.326;12.690;2023-02-24T10:43:39;23.40;;;17.43;;
16139;SDS011;8175;49.326;12.690;2023-02-24T10:46:27;15.70;;;10.63;;
16139;SDS011;8175;49.326;12.690;2023-02-24T10:48:59;15.53;;;11.67;;
16139;SDS011;8175;49.326;12.690;2023-02-24T10:52:09;14.33;;;10.43;;
16139;SDS011;8175;49.326;12.690;2023-02-24T10:54:22;16.57;;;11.63;;
16139;SDS011;8175;49.326;12.690;2023-02-24T10:57:01;9.73;;;8.20;;
16139;SDS011;8175;49.326;12.690;2023-02-24T10:59:52;12.37;;;9.53;;
16139;SDS011;8175;49.326;12.690;2023-02-24T11:02:44;12.10;;;8.43;;
16139;SDS011;8175;49.326;12.690;2023-02-24T11:05:42;12.40;;;9.60;;
16139;SDS011;8175;49.326;12.690;2023-02-24T11:08:28;12.13;;;8.90;;
16139;SDS011;8175;49.326;12.690;2023-02-24T11:11:08;13.37;;;9.50;;
16139;SDS011;8175;49.326;12.690;2023-02-24T11:13:54;10.70;;;8.63;;
16139;SDS011;8175;49.326;12.690;2023-02-24T11:16:45;11.67;;;8.37;;
16139;SDS011;8175;49.326;12.690;2023-02-24T11:19:32;10.47;;;8.30;;
16139;SDS011;8175;49.326;12.690;2023-02-24T11:22:04;11.23;;;8.20;;
16139;SDS011;8175;49.326;12.690;2023-02-24T11:24:34;12.10;;;8.13;;
16139;SDS011;8175;49.326;12.690;2023-02-24T11:27:02;9.13;;;6.80;;
16139;SDS011;8175;49.326;12.690;2023-02-24T11:29:32;10.87;;;7.47;;
16139;SDS011;8175;49.326;12.690;2023-02-24T11:35:09;14.47;;;9.00;;
16139;SDS011;8175;49.326;12.690;2023-02-24T11:37:42;14.47;;;9.17;;
16139;SDS011;8175;49.326;12.690;2023-02-24T11:40:22;8.40;;;7.03;;
16139;SDS011;8175;49.326;12.690;2023-02-24T11:43:09;10.80;;;7.27;;
16139;SDS011;8175;49.326;12.690;2023-02-24T11:45:42;11.27;;;7.93;;
16139;SDS011;8175;49.326;12.690;2023-02-24T11:51:04;13.20;;;8.17;;
16139;SDS011;8175;49.326;12.690;2023-02-24T11:53:57;14.23;;;9.27;;
16139;SDS011;8175;49.326;12.690;2023-02-24T11:56:35;19.17;;;9.97;;
16139;SDS011;8175;49.326;12.690;2023-02-24T12:02:18;24.50;;;15.03;;
16139;SDS011;8175;49.326;12.690;2023-02-24T12:07:51;23.60;;;14.00;;
16139;SDS011;8175;49.326;12.690;2023-02-24T12:10:24;13.93;;;8.53;;
16139;SDS011;8175;49.326;12.690;2023-02-24T12:18:35;13.70;;;9.70;;
16139;SDS011;8175;49.326;12.690;2023-02-24T12:23:37;16.63;;;9.87;;
16139;SDS011;8175;49.326;12.690;2023-02-24T12:26:13;21.43;;;13.23;;
16139;SDS011;8175;49.326;12.690;2023-02-24T12:53:28;17.53;;;9.13;;
16139;SDS011;8175;49.326;12.690;2023-02-24T12:56:20;13.70;;;9.30;;
16139;SDS011;8175;49.326;12.690;2023-02-24T12:58:55;13.13;;;8.20;;
16139;SDS011;8175;49.326;12.690;2023-02-24T13:06:37;13.43;;;8.93;;
16139;SDS011;8175;49.326;12.690;2023-02-24T13:09:20;18.70;;;11.10;;
16139;SDS011;8175;49.326;12.690;2023-02-24T13:12:28;17.13;;;10.53;;
16139;SDS011;8175;49.326;12.690;2023-02-24T13:15:20;13.87;;;8.17;;
16139;SDS011;8175;49.326;12.690;2023-02-24T13:17:49;14.97;;;9.30;;
16139;SDS011;8175;49.326;12.690;2023-02-24T13:20:27;12.73;;;8.27;;
16139;SDS011;8175;49.326;12.690;2023-02-24T13:22:56;13.33;;;8.50;;
16139;SDS011;8175;49.326;12.690;2023-02-24T13:25:34;10.07;;;7.73;;
16139;SDS011;8175;49.326;12.690;2023-02-24T13:28:02;13.47;;;7.70;;
16139;SDS011;8175;49.326;12.690;2023-02-24T13:30:37;13.90;;;8.10;;
16139;SDS011;8175;49.326;12.690;2023-02-24T13:35:42;11.83;;;7.87;;
16139;SDS011;8175;49.326;12.690;2023-02-24T13:38:34;22.37;;;12.33;;
16139;SDS011;8175;49.326;12.690;2023-02-24T13:41:45;12.23;;;8.07;;
16139;SDS011;8175;49.326;12.690;2023-02-24T13:43:52;12.37;;;8.27;;
16139;SDS011;8175;49.326;12.690;2023-02-24T13:46:22;12.57;;;8.60;;
16139;SDS011;8175;49.326;12.690;2023-02-24T14:00:02;14.17;;;8.27;;
16139;SDS011;8175;49.326;12.690;2023-02-24T14:02:50;13.80;;;7.87;;
16139;SDS011;8175;49.326;12.690;2023-02-24T14:05:21;12.87;;;9.10;;
16139;SDS011;8175;49.326;12.690;2023-02-24T14:07:53;15.67;;;8.87;;
16139;SDS011;8175;49.326;12.690;2023-02-24T14:10:21;14.07;;;8.43;;
16139;SDS011;8175;49.326;12.690;2023-02-24T14:12:50;13.73;;;8.03;;
16139;SDS011;8175;49.326;12.690;2023-02-24T14:15:42;11.50;;;7.80;;
16139;SDS011;8175;49.326;12.690;2023-02-24T14:18:20;11.97;;;7.73;;
16139;SDS011;8175;49.326;12.690;2023-02-24T14:20:47;16.87;;;10.07;;
16139;SDS011;8175;49.326;12.690;2023-02-24T14:23:20;11.97;;;8.07;;
16139;SDS011;8175;49.326;12.690;2023-02-24T14:25:47;11.73;;;8.07;;
16139;SDS011;8175;49.326;12.690;2023-02-24T14:28:31;17.23;;;10.77;;
16139;SDS011;8175;49.326;12.690;2023-02-24T14:30:59;11.37;;;7.60;;
16139;SDS011;8175;49.326;12.690;2023-02-24T14:33:40;13.93;;;8.70;;
16139;SDS011;8175;49.326;12.690;2023-02-24T14:36:22;16.70;;;7.83;;
16139;SDS011;8175;49.326;12.690;2023-02-24T14:39:06;10.10;;;7.30;;
16139;SDS011;8175;49.326;12.690;2023-02-24T14:41:33;13.57;;;8.53;;
16139;SDS011;8175;49.326;12.690;2023-02-24T14:44:04;12.77;;;7.73;;
16139;SDS011;8175;49.326;12.690;2023-02-24T14:46:45;13.83;;;7.70;;
16139;SDS011;8175;49.326;12.690;2023-02-24T14:49:15;12.97;;;7.77;;
16139;SDS011;8175;49.326;12.690;2023-02-24T14:51:43;10.50;;;7.43;;
16139;SDS011;8175;49.326;12.690;2023-02-24T14:54:11;13.90;;;9.47;;
16139;SDS011;8175;49.326;12.690;2023-02-24T14:56:45;13.17;;;9.67;;
16139;SDS011;8175;49.326;12.690;2023-02-24T14:59:15;14.27;;;9.77;;
16139;SDS011;8175;49.326;12.690;2023-02-24T15:01:47;17.37;;;10.40;;
16139;SDS011;8175;49.326;12.690;2023-02-24T15:07:12;16.53;;;10.77;;
16139;SDS011;8175;49.326;12.690;2023-02-24T15:09:43;17.93;;;11.03;;
16139;SDS011;8175;49.326;12.690;2023-02-24T15:12:22;18.57;;;11.47;;
16139;SDS011;8175;49.326;12.690;2023-02-24T15:15:17;13.40;;;10.00;;
16139;SDS011;8175;49.326;12.690;2023-02-24T15:17:50;12.07;;;8.73;;
16139;SDS011;8175;49.326;12.690;2023-02-24T15:20:29;14.93;;;8.83;;
16139;SDS011;8175;49.326;12.690;2023-02-24T15:22:59;13.97;;;9.13;;
16139;SDS011;8175;49.326;12.690;2023-02-24T15:25:29;13.60;;;8.77;;
16139;SDS011;8175;49.326;12.690;2023-02-24T15:28:19;16.87;;;9.93;;
16139;SDS011;8175;49.326;12.690;2023-02-24T15:30:54;16.33;;;9.60;;
16139;SDS011;8175;49.326;12.690;2023-02-24T15:33:28;14.90;;;9.13;;
16139;SDS011;8175;49.326;12.690;2023-02-24T15:36:24;13.37;;;9.23;;
16139;SDS011;8175;49.326;12.690;2023-02-24T15:38:54;17.27;;;9.97;;
16139;SDS011;8175;49.326;12.690;2023-02-24T15:41:24;14.73;;;8.60;;
16139;SDS011;8175;49.326;12.690;2023-02-24T15:43:50;12.93;;;8.03;;
16139;SDS011;8175;49.326;12.690;2023-02-24T15:48:48;17.37;;;8.97;;
16139;SDS011;8175;49.326;12.690;2023-02-24T15:54:02;15.40;;;9.50;;
16139;SDS011;8175;49.326;12.690;2023-02-24T15:56:35;14.50;;;8.13;;
16139;SDS011;8175;49.326;12.690;2023-02-24T15:59:01;17.10;;;9.17;;
16139;SDS011;8175;49.326;12.690;2023-02-24T16:01:27;14.87;;;10.13;;
16139;SDS011;8175;49.326;12.690;2023-02-24T16:03:54;17.03;;;9.47;;
16139;SDS011;8175;49.326;12.690;2023-02-24T16:06:21;13.53;;;9.00;;
16139;SDS011;8175;49.326;12.690;2023-02-24T16:08:47;13.40;;;9.60;;
16139;SDS011;8175;49.326;12.690;2023-02-24T16:11:16;16.20;;;8.73;;
16139;SDS011;8175;49.326;12.690;2023-02-24T16:13:47;15.27;;;8.80;;
16139;SDS011;8175;49.326;12.690;2023-02-24T16:16:17;14.50;;;8.47;;
16139;SDS011;8175;49.326;12.690;2023-02-24T16:18:43;16.90;;;9.77;;
16139;SDS011;8175;49.326;12.690;2023-02-24T16:21:09;16.13;;;9.57;;
16139;SDS011;8175;49.326;12.690;2023-02-24T16:23:35;16.37;;;9.83;;
16139;SDS011;8175;49.326;12.690;2023-02-24T16:26:04;17.03;;;9.43;;
16139;SDS011;8175;49.326;12.690;2023-02-24T16:28:33;20.10;;;10.17;;
16139;SDS011;8175;49.326;12.690;2023-02-24T16:30:59;18.13;;;9.77;;
16139;SDS011;8175;49.326;12.690;2023-02-24T16:33:26;16.73;;;10.37;;
16139;SDS011;8175;49.326;12.690;2023-02-24T16:35:52;22.20;;;10.37;;
16139;SDS011;8175;49.326;12.690;2023-02-24T16:38:19;19.97;;;10.87;;
16139;SDS011;8175;49.326;12.690;2023-02-24T16:40:47;14.37;;;10.03;;
16139;SDS011;8175;49.326;12.690;2023-02-24T16:43:14;19.03;;;11.67;;
16139;SDS011;8175;49.326;12.690;2023-02-24T16:45:41;16.13;;;10.07;;
16139;SDS011;8175;49.326;12.690;2023-02-24T16:48:08;16.37;;;10.23;;
16139;SDS011;8175;49.326;12.690;2023-02-24T16:50:45;16.73;;;9.97;;
16139;SDS011;8175;49.326;12.690;2023-02-24T16:53:13;16.90;;;10.10;;
16139;SDS011;8175;49.326;12.690;2023-02-24T16:55:43;16.97;;;11.87;;
16139;SDS011;8175;49.326;12.690;2023-02-24T16:58:10;14.70;;;10.07;;
16139;SDS011;8175;49.326;12.690;2023-02-24T17:00:37;18.30;;;10.17;;
16139;SDS011;8175;49.326;12.690;2023-02-24T17:03:05;19.73;;;11.00;;
16139;SDS011;8175;49.326;12.690;2023-02-24T17:05:39;20.03;;;11.33;;